Time;durP1;ratioP1;P1;durP2;ratioP2;P2;SDS_P1;SDS_P2;PMS_P1;PMS_P2;Temp;Humidity;BMP_temperature;BMP_pressure;BME280_temperature;BME280_humidity;BME280_pressure;Samples;Min_cycle;Max_cycle;Signal;HPM_P1;HPM_P2
2022/05/15 00:02:09;;;;;;;7.47;4.55;;;;;;;19.11;100.00;98235.25;6269901;22;20143;-56
2022/05/15 00:04:35;;;;;;;6.78;4.30;;;;;;;19.18;100.00;98232.81;6270193;22;20144;-56
2022/05/15 00:07:01;;;;;;;5.20;4.75;;;;;;;19.03;100.00;98230.00;6270552;22;20152;-56
2022/05/15 00:09:26;;;;;;;5.30;4.80;;;;;;;18.84;100.00;98243.41;6270533;22;20496;-56
2022/05/15 00:11:52;;;;;;;7.32;5.25;;;;;;;18.87;100.00;98232.59;6270643;22;20148;-56
2022/05/15 00:14:18;;;;;;;5.28;4.82;;;;;;;19.03;100.00;98229.19;6270146;22;20222;-57
2022/05/15 00:16:43;;;;;;;6.07;5.05;;;;;;;18.99;100.00;98233.94;6255831;22;20199;-56
2022/05/15 00:19:09;;;;;;;5.10;4.63;;;;;;;19.01;100.00;98236.41;6258180;22;20567;-56
2022/05/15 00:21:36;;;;;;;5.50;5.00;;;;;;;19.11;100.00;98231.84;6264905;22;20151;-56
2022/05/15 00:24:02;;;;;;;6.00;4.70;;;;;;;19.17;100.00;98229.34;6269907;22;20147;-56
2022/05/15 00:26:27;;;;;;;7.60;4.93;;;;;;;19.28;100.00;98230.88;6269996;22;20197;-56
2022/05/15 00:28:52;;;;;;;7.63;4.75;;;;;;;19.15;100.00;98235.75;6269941;22;20495;-56
2022/05/15 00:31:18;;;;;;;5.20;4.80;;;;;;;19.13;100.00;98235.91;6270443;22;20151;-56
2022/05/15 00:33:44;;;;;;;4.97;4.50;;;;;;;19.03;100.00;98234.44;6269961;22;20474;-56
2022/05/15 00:36:11;;;;;;;6.88;5.22;;;;;;;18.72;100.00;98236.00;6265631;22;20151;-56
2022/05/15 00:38:37;;;;;;;6.80;5.35;;;;;;;18.91;100.00;98241.78;6256430;22;20167;-57
2022/05/15 00:41:02;;;;;;;8.88;4.90;;;;;;;18.80;100.00;98239.47;6256702;22;20186;-56
2022/05/15 00:43:36;;;;;;;10.73;4.70;;;;;;;18.75;100.00;98241.75;6268483;22;20590;-56
2022/05/15 00:46:05;;;;;;;5.15;4.72;;;;;;;18.77;100.00;98231.91;6269881;22;20152;-57
2022/05/15 00:48:30;;;;;;;4.80;4.50;;;;;;;18.86;100.00;98238.00;6269610;22;20150;-57
2022/05/15 00:50:56;;;;;;;5.72;4.68;;;;;;;18.60;100.00;98245.16;6269817;22;20147;-56
2022/05/15 00:53:22;;;;;;;5.95;4.95;;;;;;;18.70;100.00;98246.66;6269831;22;20201;-56
2022/05/15 00:55:51;;;;;;;5.40;4.35;;;;;;;18.83;100.00;98246.19;6269759;22;20305;-57
2022/05/15 00:58:23;;;;;;;5.75;4.95;;;;;;;18.85;100.00;98252.09;6258536;22;20186;-56
2022/05/15 01:00:49;;;;;;;5.20;4.70;;;;;;;18.82;100.00;98249.81;6256356;22;20144;-57
2022/05/15 01:03:18;;;;;;;5.50;4.50;;;;;;;18.86;100.00;98251.09;6262990;22;20152;-56
2022/05/15 01:05:50;;;;;;;4.72;4.38;;;;;;;18.92;100.00;98247.84;6269413;22;20148;-56
2022/05/15 01:08:16;;;;;;;4.75;4.35;;;;;;;18.86;100.00;98244.06;6269644;22;20136;-56
2022/05/15 01:10:46;;;;;;;4.97;4.53;;;;;;;18.71;100.00;98244.84;6269193;22;20231;-56
2022/05/15 01:13:13;;;;;;;4.47;4.00;;;;;;;18.68;100.00;98238.13;6269474;22;20144;-56
2022/05/15 01:15:40;;;;;;;7.60;4.47;;;;;;;18.53;100.00;98244.94;6269227;22;20168;-56
2022/05/15 01:18:08;;;;;;;5.13;4.60;;;;;;;18.67;100.00;98248.78;6265926;22;20187;-57
2022/05/15 01:20:34;;;;;;;5.78;3.95;;;;;;;18.81;100.00;98248.13;6255792;22;20155;-56
2022/05/15 01:23:00;;;;;;;6.45;4.72;;;;;;;18.66;100.00;98252.38;6257964;22;20151;-56
2022/05/15 01:25:30;;;;;;;4.60;4.10;;;;;;;18.76;100.00;98237.34;6267390;22;20147;-56
2022/05/15 01:28:18;;;;;;;5.22;4.72;;;;;;;18.51;100.00;98238.22;6269270;22;20146;-57
2022/05/15 01:30:48;;;;;;;7.68;4.50;;;;;;;18.77;100.00;98244.22;6269550;22;20140;-56
2022/05/15 01:33:14;;;;;;;4.50;4.10;;;;;;;18.74;100.00;98241.91;6267535;22;20227;-56
2022/05/15 01:35:39;;;;;;;5.32;3.67;;;;;;;18.77;100.00;98247.63;6269224;22;20172;-56
2022/05/15 01:38:05;;;;;;;4.68;4.25;;;;;;;18.71;100.00;98250.91;6269403;22;20171;-56
2022/05/15 01:40:31;;;;;;;4.03;3.72;;;;;;;18.64;100.00;98246.44;6257576;22;20162;-57
2022/05/15 01:42:59;;;;;;;5.00;3.95;;;;;;;18.60;100.00;98247.78;6256688;22;20231;-56
2022/05/15 01:45:24;;;;;;;4.20;3.80;;;;;;;18.59;100.00;98248.75;6263315;22;20151;-56
2022/05/15 01:47:50;;;;;;;4.15;3.83;;;;;;;18.66;100.00;98250.56;6269364;22;20150;-56
2022/05/15 01:50:15;;;;;;;4.03;3.65;;;;;;;18.68;100.00;98248.63;6269357;22;20601;-56
2022/05/15 01:52:42;;;;;;;4.28;3.65;;;;;;;18.78;100.00;98251.91;6269008;22;20214;-57
2022/05/15 01:55:08;;;;;;;4.90;4.03;;;;;;;18.77;100.00;98252.88;6269331;22;20144;-56
2022/05/15 01:57:34;;;;;;;6.65;3.60;;;;;;;18.75;100.00;98262.72;6269226;22;20176;-56
2022/05/15 01:59:59;;;;;;;4.80;4.25;;;;;;;18.79;100.00;98263.22;6266538;22;20617;-56
2022/05/15 02:02:25;;;;;;;5.22;3.85;;;;;;;18.82;100.00;98266.34;6255743;22;20186;-56
2022/05/15 02:04:50;;;;;;;3.60;3.35;;;;;;;18.92;100.00;98263.56;6257700;22;20205;-57
2022/05/15 02:07:15;;;;;;;5.47;4.03;;;;;;;18.84;100.00;98263.56;6266767;22;20151;-56
2022/05/15 02:09:41;;;;;;;5.07;4.00;;;;;;;18.90;100.00;98260.31;6269124;22;20219;-56
2022/05/15 02:12:07;;;;;;;10.75;3.97;;;;;;;18.78;100.00;98269.44;6268831;22;20152;-56
2022/05/15 02:14:33;;;;;;;5.57;3.80;;;;;;;18.74;100.00;98265.50;6270888;22;20185;-56
2022/05/15 02:16:58;;;;;;;4.47;3.75;;;;;;;18.72;100.00;98267.47;6270924;22;20661;-57
2022/05/15 02:19:24;;;;;;;4.32;3.95;;;;;;;18.49;100.00;98261.16;6271260;22;20152;-57
2022/05/15 02:21:49;;;;;;;4.13;3.75;;;;;;;18.58;100.00;98270.66;6263928;22;20155;-57
2022/05/15 02:24:15;;;;;;;3.80;3.40;;;;;;;18.52;100.00;98266.06;6258576;22;20652;-56
2022/05/15 02:26:41;;;;;;;3.85;3.55;;;;;;;18.39;100.00;98271.75;6260666;22;20258;-56
2022/05/15 02:29:07;;;;;;;5.28;4.30;;;;;;;18.28;100.00;98273.78;6271319;22;20158;-56
2022/05/15 02:31:32;;;;;;;8.18;4.00;;;;;;;18.25;100.00;98268.88;6270945;22;20156;-56
2022/05/15 02:33:59;;;;;;;4.00;3.60;;;;;;;18.19;100.00;98270.31;6271232;22;20152;-56
2022/05/15 02:36:25;;;;;;;4.28;3.88;;;;;;;18.26;100.00;98266.09;6271481;22;20152;-56
2022/05/15 02:38:50;;;;;;;4.25;3.85;;;;;;;18.29;100.00;98267.56;6271017;22;20605;-56
2022/05/15 02:41:16;;;;;;;3.70;3.35;;;;;;;18.14;100.00;98277.00;6271051;22;20598;-56
2022/05/15 02:43:42;;;;;;;4.00;3.42;;;;;;;18.23;98.92;98286.53;6259142;22;20156;-57
2022/05/15 02:46:08;;;;;;;4.03;3.38;;;;;;;18.16;100.00;98282.88;6259140;22;20143;-56
2022/05/15 02:51:17;;;;;;;5.43;3.38;;;;;;;18.15;99.38;98281.25;6270988;22;20500;-56
2022/05/15 02:53:44;;;;;;;5.78;3.78;;;;;;;18.25;99.01;98280.16;6270832;22;20147;-57
2022/05/15 02:56:13;;;;;;;6.80;4.10;;;;;;;18.11;100.00;98282.53;6270920;22;20152;-56
2022/05/15 02:58:38;;;;;;;4.43;3.75;;;;;;;17.98;100.00;98287.38;6269380;22;20588;-56
2022/05/15 03:01:04;;;;;;;4.13;3.72;;;;;;;17.71;100.00;98282.25;6270810;22;20151;-56
2022/05/15 03:03:30;;;;;;;5.60;3.58;;;;;;;17.75;100.00;98288.84;6265076;22;20183;-57
2022/05/15 03:05:56;;;;;;;3.90;3.60;;;;;;;17.88;100.00;98284.84;6257536;22;20147;-56
2022/05/15 03:08:21;;;;;;;5.65;4.00;;;;;;;17.87;100.00;98285.00;6259417;22;20144;-56
2022/05/15 03:10:47;;;;;;;5.13;3.75;;;;;;;17.75;100.00;98291.44;6269023;22;20151;-57
2022/05/15 03:13:12;;;;;;;4.72;3.70;;;;;;;17.78;100.00;98286.72;6270686;22;20675;-56
2022/05/15 03:15:38;;;;;;;5.15;3.25;;;;;;;17.87;100.00;98290.22;6270532;22;20572;-56
2022/05/15 03:18:04;;;;;;;5.38;3.30;;;;;;;17.85;100.00;98290.38;6270329;22;20619;-56
2022/05/15 03:20:29;;;;;;;5.03;3.20;;;;;;;17.82;100.00;98292.47;6270364;22;20148;-56
2022/05/15 03:22:55;;;;;;;3.90;3.60;;;;;;;17.78;100.00;98288.53;6270624;22;20183;-56
2022/05/15 03:25:21;;;;;;;4.40;3.45;;;;;;;17.72;100.00;98289.97;6261172;22;20400;-56
2022/05/15 03:27:47;;;;;;;4.15;3.75;;;;;;;17.68;100.00;98277.34;6258433;22;20198;-56
2022/05/15 03:30:13;;;;;;;4.50;3.53;;;;;;;17.79;100.00;98295.41;6261451;22;20238;-56
2022/05/15 03:32:39;;;;;;;4.18;3.78;;;;;;;17.75;100.00;98296.69;6270582;22;20159;-56
2022/05/15 03:35:07;;;;;;;4.70;3.03;;;;;;;17.98;98.88;98310.94;6270799;22;20152;-56
2022/05/15 03:37:32;;;;;;;3.15;2.90;;;;;;;18.13;96.87;98304.16;6268526;22;20183;-56
2022/05/15 03:39:58;;;;;;;5.25;3.35;;;;;;;18.30;95.78;98313.75;6268703;22;20597;-56
2022/05/15 03:42:26;;;;;;;8.60;3.70;;;;;;;18.12;100.00;98316.44;6270612;22;20522;-56
2022/05/15 03:44:52;;;;;;;5.65;3.38;;;;;;;18.27;98.03;98314.91;6270415;22;20221;-56
2022/05/15 03:47:18;;;;;;;5.97;3.58;;;;;;;18.35;98.66;98314.97;6256353;22;20144;-56
2022/05/15 03:49:44;;;;;;;3.92;3.05;;;;;;;18.44;98.43;98315.81;6258556;22;20520;-56
2022/05/15 03:52:09;;;;;;;3.92;3.05;;;;;;;18.50;97.49;98315.19;6265686;22;20680;-56
2022/05/15 03:54:35;;;;;;;3.88;3.50;;;;;;;18.39;99.75;98320.69;6270189;22;20608;-56
2022/05/15 03:57:00;;;;;;;4.05;3.45;;;;;;;18.42;100.00;98321.22;6270562;22;20207;-56
2022/05/15 03:59:34;;;;;;;6.22;3.42;;;;;;;18.53;99.93;98320.13;6270343;22;20152;-56
2022/05/15 04:02:01;;;;;;;4.32;3.53;;;;;;;18.62;100.00;98321.81;6270224;22;20160;-56
2022/05/15 04:04:27;;;;;;;5.63;3.40;;;;;;;18.64;100.00;98322.47;6270388;22;20570;-56
2022/05/15 04:06:52;;;;;;;4.28;3.88;;;;;;;18.77;100.00;98307.13;6263799;22;20179;-56
2022/05/15 04:09:18;;;;;;;4.15;3.80;;;;;;;18.77;99.16;98315.00;6255405;22;20277;-56
2022/05/15 04:11:43;;;;;;;3.58;3.22;;;;;;;18.82;95.18;98310.09;6257922;22;20179;-56
2022/05/15 04:14:09;;;;;;;5.28;3.60;;;;;;;18.87;97.68;98313.03;6269089;22;20556;-56
2022/05/15 04:16:35;;;;;;;6.60;3.40;;;;;;;19.09;91.19;98317.72;6269906;22;20180;-56
2022/05/15 04:19:01;;;;;;;3.63;3.33;;;;;;;19.11;96.40;98321.00;6268223;22;20702;-56
2022/05/15 04:21:27;;;;;;;4.70;3.50;;;;;;;19.09;97.41;98333.44;6270139;22;20606;-56
2022/05/15 04:23:53;;;;;;;7.43;3.63;;;;;;;18.89;100.00;98332.09;6270009;22;20776;-56
2022/05/15 04:26:19;;;;;;;3.28;2.97;;;;;;;18.86;100.00;98332.38;6270056;22;20171;-56
2022/05/15 04:28:46;;;;;;;5.90;3.58;;;;;;;18.75;100.00;98330.88;6259295;22;20297;-56
2022/05/15 04:31:11;;;;;;;4.90;3.45;;;;;;;18.80;100.00;98335.63;6257656;22;20622;-56
2022/05/15 04:33:37;;;;;;;5.93;3.75;;;;;;;18.62;100.00;98333.13;6262725;22;20144;-56
2022/05/15 04:36:03;;;;;;;5.93;3.50;;;;;;;18.61;100.00;98325.41;6269854;22;20485;-56
2022/05/15 04:38:28;;;;;;;5.95;3.80;;;;;;;18.70;100.00;98332.31;6269733;22;20203;-56
2022/05/15 04:40:54;;;;;;;5.30;3.45;;;;;;;18.83;100.00;98336.13;6269943;22;20223;-56
2022/05/15 04:43:20;;;;;;;3.83;3.50;;;;;;;18.92;100.00;98337.00;6269800;22;20205;-56
2022/05/15 04:45:45;;;;;;;7.88;3.45;;;;;;;19.00;100.00;98334.41;6267968;22;20152;-56
2022/05/15 04:48:12;;;;;;;5.47;3.50;;;;;;;19.15;98.54;98338.06;6267214;22;20175;-56
2022/05/15 04:50:38;;;;;;;3.28;2.90;;;;;;;19.36;95.68;98335.84;6255630;22;20151;-56
2022/05/15 04:53:05;;;;;;;3.60;3.33;;;;;;;19.56;92.94;98335.38;6257707;22;20147;-56
2022/05/15 04:55:31;;;;;;;6.32;3.13;;;;;;;19.80;93.06;98338.00;6266006;22;20462;-56
2022/05/15 04:57:56;;;;;;;3.08;2.78;;;;;;;20.03;91.69;98333.75;6269935;22;20183;-56
2022/05/15 05:00:21;;;;;;;2.75;2.50;;;;;;;20.28;73.89;98345.06;6269433;22;20162;-56
2022/05/15 05:02:47;;;;;;;3.60;2.67;;;;;;;20.58;74.26;98346.97;6269409;22;20148;-56
2022/05/15 05:05:13;;;;;;;3.47;2.40;;;;;;;20.76;74.70;98342.31;6269685;22;20182;-56
2022/05/15 05:07:39;;;;;;;9.82;2.88;;;;;;;21.04;78.99;98346.16;6269841;22;20222;-56
2022/05/15 05:10:07;;;;;;;3.33;3.05;;;;;;;21.18;79.07;98350.69;6261512;22;20352;-56
2022/05/15 05:12:32;;;;;;;4.85;3.00;;;;;;;21.31;81.18;98356.19;6256927;22;20235;-56
2022/05/15 05:14:58;;;;;;;7.22;2.47;;;;;;;21.52;63.17;98365.16;6258539;22;20230;-57
2022/05/15 05:17:27;;;;;;;3.13;2.55;;;;;;;21.68;62.96;98372.16;6269156;22;20278;-57
2022/05/15 05:19:52;;;;;;;2.53;2.30;;;;;;;21.88;59.20;98368.03;6269543;22;20172;-57
2022/05/15 05:22:17;;;;;;;2.40;2.22;;;;;;;22.00;58.67;98359.53;6269548;22;20182;-56
2022/05/15 05:24:43;;;;;;;5.25;2.40;;;;;;;22.11;59.30;98361.75;6269437;22;20148;-56
2022/05/15 05:27:08;;;;;;;3.90;2.47;;;;;;;22.24;61.93;98361.13;6269521;22;20144;-57
2022/05/15 05:29:35;;;;;;;2.70;2.50;;;;;;;22.34;60.12;98361.69;6269497;22;20531;-57
2022/05/15 05:32:00;;;;;;;2.55;2.35;;;;;;;22.42;58.30;98366.88;6257832;22;20234;-57
2022/05/15 05:34:26;;;;;;;2.58;2.38;;;;;;;22.55;57.20;98360.00;6255050;22;20301;-57
2022/05/15 05:36:52;;;;;;;2.85;2.22;;;;;;;22.73;55.10;98378.13;6262676;22;20183;-56
2022/05/15 05:39:17;;;;;;;2.60;2.38;;;;;;;22.84;55.27;98372.41;6269948;22;20143;-58
2022/05/15 05:41:43;;;;;;;3.55;2.25;;;;;;;22.98;53.21;98371.56;6269205;22;20155;-56
2022/05/15 05:44:08;;;;;;;3.45;2.20;;;;;;;22.98;51.70;98376.84;6269375;22;20151;-56
2022/05/15 05:46:34;;;;;;;4.43;1.95;;;;;;;23.11;50.80;98377.00;6269204;22;20159;-56
2022/05/15 05:48:59;;;;;;;4.93;2.97;;;;;;;23.21;51.34;98377.56;6269052;22;20144;-56
2022/05/15 05:51:25;;;;;;;3.25;2.00;;;;;;;23.29;51.02;98380.09;6267610;22;20151;-56
2022/05/15 05:53:51;;;;;;;3.25;1.80;;;;;;;23.36;49.43;98371.25;6255232;22;20414;-56
2022/05/15 05:56:16;;;;;;;2.97;2.75;;;;;;;23.41;50.18;98374.16;6257831;22;20683;-56
2022/05/15 05:58:42;;;;;;;1.95;1.85;;;;;;;23.47;50.04;98377.88;6266114;22;20176;-56
2022/05/15 06:01:07;;;;;;;3.72;2.03;;;;;;;23.54;48.95;98378.78;6269190;22;20151;-56
2022/05/15 06:06:18;;;;;;;2.95;2.00;;;;;;;23.62;48.96;98387.41;6267909;22;20220;-56
2022/05/15 06:08:43;;;;;;;3.72;2.30;;;;;;;23.59;48.52;98377.19;6269300;22;20222;-56
2022/05/15 06:11:12;;;;;;;2.83;1.67;;;;;;;23.65;49.22;98378.28;6269211;22;20178;-56
2022/05/15 06:13:39;;;;;;;4.43;2.25;;;;;;;23.68;47.01;98381.38;6232610;22;20159;-56
2022/05/15 06:16:05;;;;;;;2.60;1.85;;;;;;;23.70;48.65;98368.78;6256736;22;20304;-57
2022/05/15 06:18:31;;;;;;;4.28;1.83;;;;;;;23.74;46.98;98376.13;6259929;22;20714;-55
2022/05/15 06:20:57;;;;;;;2.53;1.65;;;;;;;23.75;47.57;98383.06;6269180;22;20148;-55
2022/05/15 06:23:22;;;;;;;2.78;1.85;;;;;;;23.79;47.50;98373.75;6269185;22;20148;-57
2022/05/15 06:25:48;;;;;;;2.03;1.83;;;;;;;23.83;48.70;98380.31;6269252;22;20155;-57
2022/05/15 06:28:13;;;;;;;4.28;2.30;;;;;;;23.93;47.53;98387.94;6269157;22;20147;-57
2022/05/15 06:30:39;;;;;;;4.65;1.95;;;;;;;23.95;45.06;98371.91;6269186;22;20164;-57
2022/05/15 06:33:06;;;;;;;4.18;2.00;;;;;;;23.92;46.17;98377.56;6267497;22;20144;-56
2022/05/15 06:35:31;;;;;;;3.55;2.10;;;;;;;23.98;46.36;98382.09;6255524;22;20178;-57
2022/05/15 06:38:00;;;;;;;4.20;2.20;;;;;;;24.04;46.85;98376.88;6256908;22;20517;-57
2022/05/15 06:40:26;;;;;;;6.88;2.25;;;;;;;24.12;44.31;98375.91;6264679;22;20148;-57
2022/05/15 06:42:52;;;;;;;2.25;1.67;;;;;;;24.14;44.96;98372.09;6269264;22;20151;-58
2022/05/15 06:45:18;;;;;;;6.13;2.05;;;;;;;24.14;43.88;98388.75;6269123;22;20148;-58
2022/05/15 06:47:44;;;;;;;2.40;2.05;;;;;;;24.13;44.96;98381.81;6269142;22;20554;-58
2022/05/15 06:50:10;;;;;;;6.38;2.05;;;;;;;24.15;44.81;98368.44;6269070;22;20148;-58
2022/05/15 06:52:37;;;;;;;1.95;1.73;;;;;;;24.21;45.27;98379.03;6268766;22;20205;-58
2022/05/15 06:55:09;;;;;;;3.88;2.00;;;;;;;24.23;44.51;98378.06;6264767;22;20179;-58
2022/05/15 06:57:34;;;;;;;1.92;1.73;;;;;;;24.23;45.49;98377.03;6255543;22;20171;-58
2022/05/15 07:00:08;;;;;;;3.28;1.85;;;;;;;24.30;44.39;98377.06;6257025;22;20156;-55
2022/05/15 07:02:33;;;;;;;2.30;1.95;;;;;;;24.27;44.14;98372.97;6270145;22;20540;-58
2022/05/15 07:04:59;;;;;;;3.60;1.98;;;;;;;24.31;45.42;98382.19;6270810;22;20152;-57
2022/05/15 07:07:25;;;;;;;3.22;1.98;;;;;;;24.35;45.24;98388.72;6270904;22;20204;-58
2022/05/15 07:09:51;;;;;;;4.63;1.90;;;;;;;24.41;44.68;98374.72;6270492;22;20171;-57
2022/05/15 07:12:16;;;;;;;4.00;2.08;;;;;;;24.42;44.44;98392.22;6243392;22;20596;-56
2022/05/15 07:14:42;;;;;;;1.65;1.55;;;;;;;24.41;44.86;98380.03;6270637;22;20219;-56
2022/05/15 07:17:08;;;;;;;3.30;2.22;;;;;;;24.47;44.37;98381.06;6260092;22;20282;-57
2022/05/15 07:19:34;;;;;;;4.03;2.00;;;;;;;24.53;44.54;98378.47;6258118;22;20589;-56
2022/05/15 07:21:59;;;;;;;2.28;1.90;;;;;;;24.58;44.22;98379.78;6263077;22;20493;-56
2022/05/15 07:24:25;;;;;;;1.83;1.60;;;;;;;24.63;44.35;98386.09;6270654;22;20144;-56
2022/05/15 07:26:51;;;;;;;3.60;1.88;;;;;;;24.70;44.45;98384.31;6268824;22;20605;-57
2022/05/15 07:29:17;;;;;;;4.43;1.73;;;;;;;24.78;43.50;98387.63;6270829;22;20171;-56
2022/05/15 07:31:43;;;;;;;3.33;1.65;;;;;;;24.83;43.60;98382.56;6270498;22;20151;-56
2022/05/15 07:34:09;;;;;;;4.65;2.00;;;;;;;24.84;42.95;98386.84;6270423;22;20201;-57
2022/05/15 07:36:35;;;;;;;2.75;1.90;;;;;;;24.92;42.62;98392.00;6270494;22;20175;-57
2022/05/15 07:39:01;;;;;;;1.73;1.63;;;;;;;24.96;42.73;98374.69;6256025;22;20187;-57
2022/05/15 07:41:27;;;;;;;1.98;1.70;;;;;;;24.94;41.68;98371.44;6258324;22;20341;-57
2022/05/15 07:43:52;;;;;;;1.80;1.60;;;;;;;24.94;41.33;98386.47;6265707;22;20163;-57
2022/05/15 07:46:18;;;;;;;2.72;1.70;;;;;;;25.00;42.21;98391.81;6270293;22;20499;-57
2022/05/15 07:48:43;;;;;;;3.20;1.83;;;;;;;24.93;42.45;98379.56;6270659;22;20143;-58
2022/05/15 07:51:09;;;;;;;4.18;1.90;;;;;;;24.87;41.55;98375.88;6270346;22;20223;-57
2022/05/15 07:53:37;;;;;;;3.85;2.20;;;;;;;24.91;42.64;98373.66;6270473;22;20255;-58
2022/05/15 07:56:03;;;;;;;4.75;2.10;;;;;;;24.90;42.48;98369.38;6270031;22;20500;-57
2022/05/15 07:58:32;;;;;;;5.22;1.63;;;;;;;24.97;43.31;98381.59;6263631;22;20641;-57
2022/05/15 08:00:57;;;;;;;2.47;1.50;;;;;;;25.01;41.42;98374.91;6256937;22;20451;-58
2022/05/15 08:03:23;;;;;;;1.95;1.65;;;;;;;25.05;43.50;98377.97;6259298;22;20150;-58
2022/05/15 08:08:32;;;;;;;3.90;1.90;;;;;;;25.21;42.63;98383.78;6270427;22;20140;-57
2022/05/15 08:11:00;;;;;;;3.22;1.58;;;;;;;25.20;40.32;98390.06;6270079;22;20147;-58
2022/05/15 08:13:28;;;;;;;4.28;1.80;;;;;;;25.24;39.95;98382.56;6268274;22;20209;-57
2022/05/15 08:15:54;;;;;;;2.20;1.50;;;;;;;25.22;39.81;98385.41;6269852;22;20172;-57
2022/05/15 08:24:01;;;;;;;3.80;2.10;;;;;;;25.33;41.23;98387.53;6258737;22;20197;-57
2022/05/15 08:26:27;;;;;;;6.15;2.17;;;;;;;25.34;40.98;98388.31;6267046;22;20156;-57
2022/05/15 08:28:54;;;;;;;3.50;1.58;;;;;;;25.31;42.42;98386.88;6270068;22;20157;-57
2022/05/15 08:31:21;;;;;;;4.07;1.98;;;;;;;25.37;42.47;98394.03;6268298;22;20234;-57
2022/05/15 08:33:47;;;;;;;4.72;1.95;;;;;;;25.37;42.67;98388.75;6268248;22;20156;-57
2022/05/15 08:36:13;;;;;;;3.25;1.70;;;;;;;25.44;40.51;98392.25;6268171;22;20156;-57
2022/05/15 08:38:39;;;;;;;4.43;2.17;;;;;;;25.50;40.68;98383.50;6269870;22;20237;-57
2022/05/15 08:41:36;;;;;;;5.80;2.25;;;;;;;25.56;41.99;98388.00;6259822;22;20659;-57
2022/05/15 08:44:22;;;;;;;4.53;1.70;;;;;;;25.67;40.57;98399.84;6257151;22;20629;-57
2022/05/15 08:46:59;;;;;;;1.92;1.42;;;;;;;25.74;38.80;98390.06;6262421;22;20148;-57
2022/05/15 08:49:39;;;;;;;2.20;1.88;;;;;;;25.76;37.72;98394.16;6268349;22;20530;-58
2022/05/15 08:52:04;;;;;;;3.50;1.55;;;;;;;25.80;36.99;98395.41;6270252;22;20140;-57
2022/05/15 08:54:33;;;;;;;1.60;1.42;;;;;;;25.82;37.19;98398.66;6267957;22;20597;-57
2022/05/15 08:56:59;;;;;;;2.90;1.58;;;;;;;25.87;36.87;98388.28;6269778;22;20172;-57
2022/05/15 08:59:27;;;;;;;2.47;1.63;;;;;;;25.92;36.50;98399.13;6269740;22;20147;-57
2022/05/15 09:01:55;;;;;;;5.13;1.90;;;;;;;25.97;37.44;98391.38;6262568;22;20667;-57
2022/05/15 09:04:21;;;;;;;2.38;1.38;;;;;;;26.01;37.75;98397.09;6256750;22;20144;-58
2022/05/15 09:07:06;;;;;;;2.67;1.73;;;;;;;26.01;38.20;98397.09;6259410;22;20154;-57
2022/05/15 09:09:45;;;;;;;4.45;1.80;;;;;;;26.07;36.55;98393.63;6269962;22;20230;-57
2022/05/15 09:12:14;;;;;;;3.55;1.75;;;;;;;26.11;36.16;98386.88;6269663;22;20140;-58
2022/05/15 09:15:00;;;;;;;4.57;1.92;;;;;;;26.19;36.89;98384.06;6269496;22;20642;-57
2022/05/15 09:17:29;;;;;;;3.95;1.85;;;;;;;26.25;36.60;98383.22;6269364;22;20196;-57
2022/05/15 09:20:06;;;;;;;1.83;1.73;;;;;;;26.28;36.11;98381.00;6269369;22;20590;-57
2022/05/15 09:22:36;;;;;;;1.85;1.60;;;;;;;26.30;35.23;98368.31;6264897;22;20201;-58
2022/05/15 09:25:06;;;;;;;1.60;1.50;;;;;;;26.35;36.54;98373.84;6256245;22;20350;-58
2022/05/15 09:27:32;;;;;;;1.60;1.40;;;;;;;26.40;35.86;98375.88;6258196;22;20139;-58
2022/05/15 09:30:00;;;;;;;4.45;1.30;;;;;;;26.51;34.88;98377.91;6268659;22;20598;-57
2022/05/15 09:32:29;;;;;;;5.55;1.52;;;;;;;26.57;35.31;98372.63;6269466;22;20152;-57
2022/05/15 09:35:00;;;;;;;4.40;2.60;;;;;;;26.58;34.42;98378.75;6269131;22;20566;-57
2022/05/15 09:43:54;;;;;;;2.55;1.52;;;;;;;26.77;34.00;98367.28;6263016;22;20213;-57
2022/05/15 09:46:23;;;;;;;1.88;1.55;;;;;;;26.77;33.04;98370.72;6256468;22;20495;-56
2022/05/15 09:49:00;;;;;;;1.98;1.60;;;;;;;26.74;32.86;98363.19;6258875;22;20514;-56
2022/05/15 09:51:47;;;;;;;3.22;1.50;;;;;;;26.83;34.01;98361.94;6269327;22;20190;-56
2022/05/15 09:54:31;;;;;;;3.03;1.60;;;;;;;26.85;33.81;98364.38;6269173;22;20535;-57
2022/05/15 09:57:19;;;;;;;1.60;1.48;;;;;;;26.93;33.37;98366.84;6269496;22;20159;-56
2022/05/15 10:00:12;;;;;;;5.20;1.30;;;;;;;27.02;32.05;98371.69;6260834;22;20164;-56
2022/05/15 10:02:45;;;;;;;4.47;1.20;;;;;;;27.04;32.52;98361.66;6266254;22;20159;-57
2022/05/15 10:05:19;;;;;;;3.28;1.83;;;;;;;27.11;33.40;98359.81;6261430;22;20732;-56
2022/05/15 10:08:00;;;;;;;3.97;1.75;;;;;;;27.19;33.69;98351.66;6255039;22;20202;-56
2022/05/15 10:10:29;;;;;;;7.93;2.03;;;;;;;27.23;33.33;98352.84;6261387;22;20136;-57
2022/05/15 10:13:03;;;;;;;2.17;1.52;;;;;;;27.34;34.49;98354.03;6268950;22;20172;-56
2022/05/15 10:15:36;;;;;;;4.03;1.50;;;;;;;27.48;32.89;98350.25;6268966;22;20490;-56
2022/05/15 10:18:03;;;;;;;2.40;1.30;;;;;;;27.62;31.31;98360.59;6268986;22;20180;-56
2022/05/15 10:20:34;;;;;;;3.33;1.50;;;;;;;27.72;30.64;98360.13;6269166;22;20155;-56
2022/05/15 10:23:09;;;;;;;4.57;1.52;;;;;;;27.74;30.08;98356.22;6269008;22;20132;-56
2022/05/15 10:25:49;;;;;;;3.20;1.30;;;;;;;27.83;30.08;98362.97;6265284;22;20186;-56
2022/05/15 10:28:17;;;;;;;4.30;1.48;;;;;;;27.77;29.80;98366.50;6256207;22;20132;-56
2022/05/15 10:31:07;;;;;;;3.22;1.40;;;;;;;27.83;31.17;98365.63;6258173;22;20593;-56
2022/05/15 10:33:40;;;;;;;1.73;1.63;;;;;;;27.96;31.13;98349.56;6269004;22;20142;-56
2022/05/15 10:36:17;;;;;;;1.90;1.48;;;;;;;27.92;30.17;98358.19;6271085;22;20246;-56
2022/05/15 10:39:07;;;;;;;6.88;1.67;;;;;;;28.04;31.08;98353.81;6271247;22;20211;-56
2022/05/15 10:42:03;;;;;;;2.40;1.75;;;;;;;28.38;30.85;98350.66;6271055;22;20216;-57
2022/05/15 10:45:04;;;;;;;2.67;1.40;;;;;;;28.49;29.11;98353.44;6271178;22;20136;-57
2022/05/15 10:47:44;;;;;;;5.88;1.88;;;;;;;28.75;29.46;98345.16;6261031;22;20399;-57
2022/05/15 10:50:19;;;;;;;4.22;1.70;;;;;;;28.83;29.72;98336.06;6258287;22;20132;-57
2022/05/15 10:52:56;;;;;;;3.13;1.30;;;;;;;29.05;29.18;98346.09;6264763;22;20571;-57
2022/05/15 10:58:49;;;;;;;2.67;1.50;;;;;;;29.21;27.31;98336.69;6270514;22;20326;-57
2022/05/15 11:01:38;;;;;;;4.80;1.42;;;;;;;29.19;28.44;98338.75;6270560;22;20139;-57
2022/05/15 11:04:14;;;;;;;2.80;1.70;;;;;;;29.43;29.24;98341.28;6270877;22;20132;-57
2022/05/15 11:06:58;;;;;;;5.07;1.45;;;;;;;29.52;29.18;98339.94;6269034;22;20181;-57
2022/05/15 11:09:44;;;;;;;7.93;1.75;;;;;;;29.79;29.38;98338.53;6256435;22;20182;-57
2022/05/15 11:12:21;;;;;;;4.13;1.52;;;;;;;29.99;27.88;98336.41;6258749;22;20222;-57
2022/05/15 11:15:13;;;;;;;3.50;1.50;;;;;;;30.14;28.35;98341.31;6266335;22;20151;-58
2022/05/15 11:17:48;;;;;;;2.08;1.30;;;;;;;30.09;28.07;98336.66;6270314;22;20188;-57
2022/05/15 11:20:19;;;;;;;4.95;1.40;;;;;;;30.22;28.24;98338.31;6270722;22;20504;-57
2022/05/15 11:22:48;;;;;;;2.63;1.63;;;;;;;30.31;26.83;98334.25;6268955;22;20148;-57
2022/05/15 11:25:27;;;;;;;1.88;1.77;;;;;;;30.42;26.75;98333.44;6270629;22;20201;-57
2022/05/15 11:28:30;;;;;;;1.63;1.40;;;;;;;30.54;26.87;98321.69;6270635;22;20151;-57
2022/05/15 11:31:03;;;;;;;2.65;1.75;;;;;;;30.75;26.93;98318.47;6207809;22;20245;-57
2022/05/15 11:33:49;;;;;;;1.88;1.42;;;;;;;30.72;26.72;98324.25;6259223;22;20176;-57
2022/05/15 11:36:21;;;;;;;2.03;1.50;;;;;;;30.82;26.63;98329.00;6269567;22;20210;-57
2022/05/15 11:38:55;;;;;;;2.13;1.77;;;;;;;31.00;26.52;98323.50;6268487;22;20698;-57
2022/05/15 11:41:36;;;;;;;1.85;1.52;;;;;;;31.16;26.56;98320.91;6270472;22;20151;-57
2022/05/15 11:44:05;;;;;;;5.35;1.83;;;;;;;31.25;26.81;98324.84;6270270;22;20152;-58
2022/05/15 11:46:45;;;;;;;4.35;1.77;;;;;;;31.01;26.26;98325.16;6269989;22;20148;-57
2022/05/15 11:49:39;;;;;;;2.22;1.30;;;;;;;30.97;26.11;98322.13;6270299;22;20481;-57
2022/05/15 11:52:14;;;;;;;2.90;1.60;;;;;;;31.03;26.54;98320.38;6229609;22;20143;-58
2022/05/15 11:54:45;;;;;;;2.38;1.38;;;;;;;31.14;26.70;98320.31;6259702;22;20351;-57
2022/05/15 11:57:38;;;;;;;1.85;1.48;;;;;;;31.35;26.15;98317.03;6268737;22;20151;-58
2022/05/15 12:00:08;;;;;;;2.22;2.03;;;;;;;31.61;27.19;98305.75;6270251;22;20136;-56
2022/05/15 12:02:34;;;;;;;2.63;1.60;;;;;;;31.84;25.56;98311.00;6270111;22;20144;-56
2022/05/15 12:05:09;;;;;;;4.75;1.40;;;;;;;31.99;25.80;98305.88;6270288;22;20230;-56